KNBG

Naval Air Station Joint Reserve Base New Orleans

Airport
ICAO code
KNBG
Summary
ICAO Region
NAM
ICAO Territory
Location

New Orleans, Louisiana,

Coordinates
29° 49' 52" N , 90° 1' 24" W
KCC
Airport BS
Bird Strike
Metar
KNBG 192055Z COR 09012G19KT 10SM BKN020 BKN035 29/26 A2999 RMK AO2 PK WND 09028/2029 SLP154 T02940256 58004 $

Description

Naval Air Station Joint Reserve Base New Orleans, also known as NASJRB New Orleans and Alvin Callender Field, is a United States military base and airport located in Belle Chasse, Plaquemines Parish, Louisiana, 6 km south of the central business district of New Orleans.

Climatology

Humid “subtropical” climate (Köppen climate classification Cfa) - characterized by hot, humid summers and cool winters. Significant amounts of precipitation occur in all seasons in most areas. Winter rainfall (and sometimes snowfall) is associated with large storms that the westerlies steer from west to east. Most summer rainfall occurs during thunderstorms and occasional tropical storms (hurricanes).

Runways

Designator Length Width Surface Rops
14/32 1829 61 ASP Yes/Yes
4/22 3048 61 ASP Yes/Yes

Airport map

Aerial View

SKYbrary Partners:

Safety knowledge contributed by: